Time;durP1;ratioP1;P1;durP2;ratioP2;P2;SDS_P1;SDS_P2;PMS_P1;PMS_P2;Temp;Humidity;BMP_temperature;BMP_pressure;BME280_temperature;BME280_humidity;BME280_pressure;Samples;Min_cycle;Max_cycle;Signal;HPM_P1;HPM_P2
2022/05/16 00:02:14;;;;;;;8.48;3.70;;;;;;;10.20;70.35;99561.61;1757789;81;21063;-71
2022/05/16 00:04:44;;;;;;;10.90;4.12;;;;;;;10.20;70.30;99561.61;1746261;81;20938;-70
2022/05/16 00:07:11;;;;;;;7.90;4.17;;;;;;;10.17;70.19;99562.25;1761131;81;20988;-69
2022/05/16 00:09:38;;;;;;;9.55;3.90;;;;;;;10.10;70.22;99561.32;1760757;81;20944;-70
2022/05/16 00:12:06;;;;;;;9.80;3.80;;;;;;;10.12;70.48;99558.83;1754901;81;21011;-68
2022/05/16 00:14:34;;;;;;;8.60;3.87;;;;;;;10.10;70.16;99564.63;1733151;81;21148;-67
2022/05/16 00:17:01;;;;;;;12.25;3.92;;;;;;;10.05;70.13;99563.39;1733845;82;21102;-71
2022/05/16 00:19:29;;;;;;;9.18;3.62;;;;;;;9.98;70.01;99562.45;1725885;82;21114;-66
2022/05/16 00:21:57;;;;;;;6.62;3.35;;;;;;;9.92;70.22;99572.81;1730680;82;21015;-70
2022/05/16 00:24:28;;;;;;;9.60;4.20;;;;;;;9.89;70.01;99572.06;1739985;81;21394;-65
2022/05/16 00:26:54;;;;;;;7.78;3.42;;;;;;;9.84;70.05;99571.61;1759123;81;21817;-70
2022/05/16 00:29:21;;;;;;;12.03;3.60;;;;;;;9.81;70.07;99578.33;1758214;81;20997;-70
2022/05/16 00:31:48;;;;;;;10.20;3.30;;;;;;;9.74;70.32;99575.43;1766423;81;20880;-69
2022/05/16 00:34:15;;;;;;;6.87;3.20;;;;;;;9.71;70.57;99575.24;1752859;80;21418;-71
2022/05/16 00:36:47;;;;;;;4.08;2.67;;;;;;;9.66;70.59;99569.31;1729103;82;21093;-67
2022/05/16 00:39:11;;;;;;;7.40;2.65;;;;;;;9.64;70.71;99572.93;1729889;81;22132;-71
2022/05/16 00:41:41;;;;;;;4.47;2.17;;;;;;;9.63;70.75;99574.06;1760215;81;21044;-69
2022/05/16 00:44:08;;;;;;;5.08;2.55;;;;;;;9.61;70.85;99573.56;1755351;81;21118;-66
2022/05/16 00:46:35;;;;;;;8.43;2.67;;;;;;;9.61;70.96;99573.56;1729234;82;20980;-70
2022/05/16 00:49:06;;;;;;;4.33;2.25;;;;;;;9.62;72.20;99572.45;1734510;82;20991;-71
2022/05/16 00:51:36;;;;;;;6.12;2.65;;;;;;;9.64;72.22;99577.05;1760684;81;21756;-71
2022/05/16 00:54:11;;;;;;;4.03;2.30;;;;;;;9.56;72.41;99576.43;1732552;81;21595;-70
2022/05/16 00:56:38;;;;;;;5.67;2.67;;;;;;;9.50;72.76;99572.42;1757035;81;20996;-69
2022/05/16 00:59:07;;;;;;;4.95;2.72;;;;;;;9.50;73.09;99574.38;1759230;81;20980;-71
2022/05/16 01:07:05;;;;;;;6.67;2.55;;;;;;;9.55;72.90;99575.64;1759773;81;20841;-68
2022/05/16 01:09:32;;;;;;;8.05;2.67;;;;;;;9.58;72.74;99579.14;1756756;80;21540;-72
2022/05/16 01:11:59;;;;;;;7.17;2.72;;;;;;;9.58;72.52;99575.56;1730400;82;21094;-67
2022/05/16 01:14:49;;;;;;;7.28;2.75;;;;;;;9.56;72.08;99571.75;1735768;81;21039;-69
2022/05/16 01:17:18;;;;;;;5.62;2.95;;;;;;;9.48;72.11;99570.55;1758713;81;21489;-67
2022/05/16 01:19:45;;;;;;;5.40;2.83;;;;;;;9.44;71.99;99570.11;1753089;81;20948;-67
2022/05/16 01:22:44;;;;;;;6.28;2.72;;;;;;;9.41;71.90;99568.81;1732223;82;21047;-70
2022/05/16 01:25:16;;;;;;;7.28;2.95;;;;;;;9.35;72.10;99564.53;1744988;81;20964;-66
2022/05/16 01:27:55;;;;;;;6.92;2.50;;;;;;;9.34;72.04;99562.36;1761121;81;21004;-65
2022/05/16 01:30:29;;;;;;;7.97;2.67;;;;;;;9.36;72.02;99562.05;1749097;81;21023;-65
2022/05/16 01:32:56;;;;;;;7.62;2.70;;;;;;;9.36;71.86;99561.50;1732142;81;20932;-71
2022/05/16 01:35:28;;;;;;;5.40;2.87;;;;;;;9.36;71.72;99564.80;1728844;82;20980;-68
2022/05/16 01:40:41;;;;;;;6.92;2.50;;;;;;;9.29;71.48;99569.36;1744447;81;21036;-72
2022/05/16 01:43:10;;;;;;;5.20;2.98;;;;;;;9.15;71.17;99576.26;1734255;81;21051;-66
2022/05/16 01:45:38;;;;;;;8.00;2.92;;;;;;;9.05;71.74;99572.36;1730590;82;21050;-69
2022/05/16 01:48:07;;;;;;;6.85;2.72;;;;;;;9.00;71.91;99569.17;1735504;82;20947;-66
2022/05/16 01:50:36;;;;;;;6.40;2.92;;;;;;;9.00;71.93;99571.36;1745714;81;20937;-71
2022/05/16 01:53:05;;;;;;;3.62;2.20;;;;;;;9.04;71.80;99576.23;1733767;81;21003;-67
2022/05/16 01:55:33;;;;;;;4.67;2.30;;;;;;;9.06;71.79;99575.38;1730584;82;21102;-66
2022/05/16 01:57:59;;;;;;;3.90;2.15;;;;;;;9.06;71.98;99569.88;1728813;82;21499;-67
2022/05/16 02:00:28;;;;;;;4.53;2.45;;;;;;;8.98;71.79;99565.36;1740992;81;21476;-69
2022/05/16 02:02:58;;;;;;;3.22;2.10;;;;;;;8.95;72.38;99569.27;1737231;81;21056;-70
2022/05/16 02:05:26;;;;;;;6.33;2.10;;;;;;;8.93;72.37;99560.52;1728862;82;21024;-70
2022/05/16 02:07:53;;;;;;;9.48;2.27;;;;;;;8.92;73.79;99569.34;1729043;82;21470;-68
2022/05/16 02:10:23;;;;;;;5.87;1.82;;;;;;;8.90;75.26;99564.71;1746573;81;21027;-70
2022/05/16 02:12:52;;;;;;;3.35;2.05;;;;;;;8.87;75.61;99563.95;1738645;81;21026;-70
2022/05/16 02:15:23;;;;;;;6.33;2.08;;;;;;;8.85;75.42;99561.48;1734369;82;20990;-68
2022/05/16 02:17:50;;;;;;;5.53;2.00;;;;;;;8.82;74.97;99563.48;1728458;82;21055;-68
2022/05/16 02:20:19;;;;;;;4.58;2.55;;;;;;;8.82;74.67;99567.60;1731170;81;21035;-65
2022/05/16 02:25:39;;;;;;;9.23;2.17;;;;;;;8.83;73.53;99562.93;1733756;82;20984;-66
2022/05/16 02:28:11;;;;;;;3.30;1.90;;;;;;;8.82;73.27;99568.98;1733550;82;20960;-71
2022/05/16 02:30:38;;;;;;;10.65;2.08;;;;;;;8.83;73.03;99567.05;1750404;81;20960;-68
2022/05/16 02:33:07;;;;;;;3.58;1.75;;;;;;;8.78;73.83;99568.53;1737864;81;21478;-70
2022/05/16 02:35:36;;;;;;;3.05;1.65;;;;;;;8.74;73.69;99565.03;1728962;82;21028;-66
2022/05/16 02:38:07;;;;;;;5.35;1.67;;;;;;;8.74;73.49;99573.27;1728636;82;20937;-65
2022/05/16 02:40:35;;;;;;;3.37;2.00;;;;;;;8.75;73.28;99573.52;1753234;81;20965;-71
2022/05/16 02:43:03;;;;;;;5.05;2.08;;;;;;;8.75;73.19;99570.77;1736892;80;20972;-69
2022/05/16 02:45:32;;;;;;;3.45;2.00;;;;;;;8.73;73.17;99564.79;1732110;82;21144;-71
2022/05/16 02:47:59;;;;;;;7.17;2.10;;;;;;;8.72;73.32;99565.06;1734989;82;21040;-70
2022/05/16 02:50:26;;;;;;;7.80;2.30;;;;;;;8.70;73.32;99569.49;1734137;81;21172;-67
2022/05/16 02:52:54;;;;;;;9.25;2.25;;;;;;;8.72;73.42;99577.42;1749950;81;21056;-69
2022/05/16 02:55:21;;;;;;;4.97;2.30;;;;;;;8.76;73.56;99572.96;1761970;80;21102;-65
2022/05/16 02:57:49;;;;;;;6.45;2.20;;;;;;;8.80;73.43;99572.61;1759291;81;21150;-68
2022/05/16 03:00:17;;;;;;;4.92;2.55;;;;;;;8.85;73.15;99568.36;1741212;81;21030;-69
2022/05/16 03:02:47;;;;;;;6.90;2.52;;;;;;;8.87;73.05;99570.83;1727671;81;20945;-71
2022/05/16 03:05:13;;;;;;;4.62;2.30;;;;;;;8.94;73.07;99572.58;1764098;81;20964;-70
2022/05/16 03:07:40;;;;;;;4.92;2.30;;;;;;;8.99;72.98;99576.59;1759721;81;20987;-71
2022/05/16 03:10:08;;;;;;;6.30;2.70;;;;;;;9.03;72.92;99575.97;1747389;81;20999;-69
2022/05/16 03:12:37;;;;;;;8.03;2.58;;;;;;;9.08;72.92;99581.36;1744951;81;21079;-69
2022/05/16 03:15:04;;;;;;;3.27;1.35;;;;;;;9.11;73.01;99581.55;1759637;81;20984;-70
2022/05/16 03:17:31;;;;;;;6.75;1.82;;;;;;;9.17;73.27;99583.64;1758502;81;21043;-69
2022/05/16 03:20:00;;;;;;;4.78;1.92;;;;;;;9.27;73.64;99574.34;1751033;81;20932;-69
2022/05/16 03:22:26;;;;;;;6.10;1.82;;;;;;;9.41;73.58;99585.86;1742804;81;21949;-67
2022/05/16 03:24:54;;;;;;;4.83;2.52;;;;;;;9.53;73.38;99588.06;1762781;81;20974;-71
2022/05/16 03:27:22;;;;;;;4.05;2.00;;;;;;;9.60;73.29;99585.70;1758690;81;21000;-69
2022/05/16 03:29:50;;;;;;;4.50;2.30;;;;;;;9.67;73.14;99588.81;1730296;82;21035;-72
2022/05/16 03:32:19;;;;;;;3.92;1.70;;;;;;;9.76;73.16;99591.63;1740953;81;20992;-70
2022/05/16 03:34:56;;;;;;;3.92;2.02;;;;;;;9.86;72.89;99591.38;1762681;81;21174;-67
2022/05/16 03:37:25;;;;;;;4.15;1.98;;;;;;;9.94;72.62;99587.08;1758666;81;20877;-71
2022/05/16 03:42:39;;;;;;;4.25;2.12;;;;;;;10.06;72.39;99586.50;1750974;81;20933;-69
2022/05/16 03:45:07;;;;;;;5.78;2.42;;;;;;;10.14;72.32;99590.97;1760243;80;21429;-68
2022/05/16 03:47:35;;;;;;;5.55;2.65;;;;;;;10.21;72.12;99589.41;1763381;81;21066;-67
2022/05/16 03:50:05;;;;;;;12.28;2.77;;;;;;;10.28;72.00;99588.14;1761104;81;20964;-68
2022/05/16 03:52:33;;;;;;;9.05;2.60;;;;;;;10.35;71.84;99597.56;1751212;81;21555;-71
2022/05/16 03:54:59;;;;;;;6.17;3.27;;;;;;;10.40;71.55;99585.61;1727963;82;20908;-68
2022/05/16 03:57:26;;;;;;;6.05;3.08;;;;;;;10.45;71.37;99589.61;1729228;82;21059;-66
2022/05/16 03:59:53;;;;;;;6.25;2.30;;;;;;;10.51;71.27;99588.91;1728460;82;21304;-70
2022/05/16 04:02:20;;;;;;;6.45;2.52;;;;;;;10.57;71.25;99584.08;1739117;81;20932;-72
2022/05/16 04:04:47;;;;;;;9.98;2.67;;;;;;;10.65;71.13;99586.61;1758860;81;21019;-70
2022/05/16 04:07:17;;;;;;;7.45;2.62;;;;;;;10.70;70.80;99587.28;1764523;80;20996;-69
2022/05/16 04:09:43;;;;;;;9.70;2.47;;;;;;;10.77;70.78;99588.75;1758993;80;20941;-71
2022/05/16 04:12:11;;;;;;;12.13;3.62;;;;;;;10.82;70.67;99587.23;1750870;81;21066;-71
2022/05/16 04:14:38;;;;;;;10.98;2.67;;;;;;;10.88;70.50;99583.77;1733276;82;21086;-71
2022/05/16 04:17:06;;;;;;;5.62;3.00;;;;;;;10.94;70.25;99589.37;1749161;79;20941;-66
2022/05/16 04:19:32;;;;;;;7.50;2.62;;;;;;;10.98;70.03;99588.98;1760753;81;21754;-70
2022/05/16 04:21:59;;;;;;;7.30;2.87;;;;;;;11.03;69.76;99588.83;1736777;82;20915;-71
2022/05/16 04:24:26;;;;;;;9.33;3.55;;;;;;;11.11;69.61;99587.21;1735830;81;21376;-68
2022/05/16 04:26:54;;;;;;;5.72;2.87;;;;;;;11.18;69.42;99595.83;1712770;82;21216;-72
2022/05/16 04:29:22;;;;;;;7.03;2.62;;;;;;;11.24;69.21;99591.54;1732064;82;21019;-72
2022/05/16 04:35:19;;;;;;;12.20;3.50;;;;;;;11.36;69.01;99589.52;1746864;78;69088;-81
2022/05/16 04:37:46;;;;;;;9.00;4.40;;;;;;;11.49;68.86;99591.31;1709763;83;21114;-82
2022/05/16 04:40:20;;;;;;;5.92;3.15;;;;;;;11.55;68.61;99586.42;1698424;83;20979;-84
2022/05/16 04:42:53;;;;;;;6.62;3.42;;;;;;;11.63;68.27;99579.29;1678832;83;21095;-85
2022/05/16 04:45:23;;;;;;;4.50;2.55;;;;;;;11.71;67.80;99588.13;1692960;84;21016;-81
2022/05/16 04:47:56;;;;;;;5.58;2.40;;;;;;;11.79;67.68;99582.34;1696026;83;20957;-81
2022/05/16 04:50:27;;;;;;;4.37;1.67;;;;;;;11.85;67.35;99592.66;1703978;83;21236;-83
2022/05/16 04:52:54;;;;;;;7.83;1.77;;;;;;;11.90;66.92;99589.17;1770597;80;21002;-79
2022/05/16 04:55:23;;;;;;;2.42;1.27;;;;;;;11.97;66.81;99596.13;1757533;80;21480;-82
2022/05/16 04:57:50;;;;;;;4.87;1.72;;;;;;;12.01;66.35;99588.83;1772878;80;21421;-85
2022/05/16 05:00:18;;;;;;;4.28;1.37;;;;;;;12.06;66.12;99591.38;1766878;80;20954;-79
2022/05/16 05:02:45;;;;;;;4.37;1.30;;;;;;;12.13;66.17;99593.11;1754870;80;22125;-82
2022/05/16 05:05:15;;;;;;;4.35;1.30;;;;;;;12.22;65.79;99594.48;1714595;82;21028;-82
2022/05/16 05:07:46;;;;;;;2.92;1.32;;;;;;;12.29;65.72;99593.41;1706612;82;21509;-82
2022/05/16 05:15:55;;;;;;;3.20;1.35;;;;;;;12.48;64.75;99588.05;1740337;81;21841;-76
2022/05/16 05:18:25;;;;;;;7.13;1.30;;;;;;;12.57;64.64;99594.94;1727589;81;21098;-81
2022/05/16 05:20:59;;;;;;;6.67;1.60;;;;;;;12.65;64.55;99584.41;1754051;81;21059;-78
2022/05/16 05:23:27;;;;;;;2.98;1.55;;;;;;;12.74;64.42;99587.10;1743444;81;21560;-75
2022/05/16 05:26:01;;;;;;;4.03;1.77;;;;;;;12.84;63.67;99592.03;1732323;80;21083;-79
2022/05/16 05:28:46;;;;;;;4.42;2.22;;;;;;;12.88;63.12;99581.34;1719998;81;21072;-78
2022/05/16 05:31:18;;;;;;;4.45;1.62;;;;;;;12.96;63.08;99581.63;1717162;81;21528;-80
2022/05/16 05:33:51;;;;;;;6.65;1.42;;;;;;;13.06;63.28;99586.78;1747420;79;21080;-77
2022/05/16 05:36:31;;;;;;;2.90;1.60;;;;;;;13.14;62.56;99580.38;1738556;79;20947;-76
2022/05/16 05:38:58;;;;;;;7.67;1.65;;;;;;;13.24;62.70;99579.16;1759506;79;21057;-82
2022/05/16 05:41:29;;;;;;;7.53;1.92;;;;;;;13.34;61.61;99580.70;1763070;79;21076;-80
2022/05/16 05:44:15;;;;;;;11.40;1.60;;;;;;;13.44;61.96;99581.46;1762510;80;21100;-67
2022/05/16 05:46:50;;;;;;;5.53;1.70;;;;;;;13.55;61.51;99585.46;1764801;80;21015;-80
2022/05/16 05:51:56;;;;;;;4.50;2.08;;;;;;;13.71;59.74;99582.08;1742848;80;21029;-76
2022/05/16 05:54:23;;;;;;;5.85;1.98;;;;;;;13.78;59.96;99584.30;1753339;80;22134;-74
2022/05/16 05:57:00;;;;;;;7.78;1.47;;;;;;;13.87;59.39;99576.70;1748068;80;20968;-80
2022/05/16 05:59:38;;;;;;;8.45;1.50;;;;;;;13.95;58.76;99578.59;1735335;80;20936;-71
2022/05/16 06:02:16;;;;;;;3.10;1.25;;;;;;;14.04;57.93;99574.92;1672679;83;21103;-84
2022/05/16 06:04:44;;;;;;;1.82;1.20;;;;;;;14.09;57.40;99576.88;1729819;82;21126;-80
2022/05/16 06:07:15;;;;;;;5.90;2.00;;;;;;;14.15;56.03;99575.27;1728732;82;21050;-80
2022/05/16 06:09:50;;;;;;;3.25;1.17;;;;;;;14.21;55.59;99571.15;1718414;82;20935;-81
2022/05/16 06:12:17;;;;;;;5.50;1.00;;;;;;;14.31;56.60;99576.22;1688870;82;21018;-81
2022/05/16 06:14:49;;;;;;;9.90;1.52;;;;;;;14.44;55.64;99574.29;1705649;83;21014;-79
2022/05/16 06:17:16;;;;;;;9.70;1.20;;;;;;;14.57;54.44;99575.09;1699140;83;20951;-82
2022/05/16 06:19:46;;;;;;;5.70;0.93;;;;;;;14.68;52.84;99574.07;1689144;82;22068;-81
2022/05/16 06:22:17;;;;;;;3.90;1.52;;;;;;;14.79;53.09;99578.55;1690464;82;21045;-80
2022/05/16 06:27:31;;;;;;;3.52;1.15;;;;;;;14.87;52.36;99569.93;1705342;82;21556;-81
2022/05/16 06:30:04;;;;;;;5.35;1.02;;;;;;;14.89;52.73;99569.58;1698978;82;20983;-77
2022/05/16 06:32:31;;;;;;;2.20;1.00;;;;;;;14.88;52.63;99569.33;1707707;83;21105;-78
2022/05/16 06:35:15;;;;;;;7.47;1.50;;;;;;;14.89;52.40;99571.78;1700788;82;20996;-71
2022/05/16 06:37:43;;;;;;;3.47;1.02;;;;;;;14.91;51.84;99565.89;1699013;82;21172;-71
2022/05/16 06:40:14;;;;;;;6.17;1.10;;;;;;;14.99;51.57;99569.68;1691355;83;21044;-73
2022/05/16 06:42:41;;;;;;;5.08;1.05;;;;;;;15.14;50.80;99568.14;1681721;83;21086;-81
2022/05/16 06:45:08;;;;;;;4.08;0.90;;;;;;;15.27;50.52;99571.72;1681186;83;21144;-72
2022/05/16 06:47:39;;;;;;;5.40;1.87;;;;;;;15.37;50.67;99565.65;1676770;82;21532;-76
2022/05/16 06:50:12;;;;;;;6.67;1.30;;;;;;;15.47;50.91;99562.98;1668797;84;21028;-77
2022/05/16 06:52:45;;;;;;;4.47;1.05;;;;;;;15.60;51.03;99562.91;1694012;83;21445;-80
2022/05/16 06:55:14;;;;;;;2.75;1.02;;;;;;;15.72;50.87;99559.28;1706571;82;21574;-76
2022/05/16 06:57:48;;;;;;;11.15;1.12;;;;;;;15.84;50.91;99559.80;1710706;82;21105;-78
2022/05/16 07:00:21;;;;;;;2.05;0.90;;;;;;;15.95;51.18;99556.72;1690790;83;21117;-73
2022/05/16 07:02:51;;;;;;;2.77;1.10;;;;;;;16.05;51.01;99552.06;1686509;84;21066;-76
2022/05/16 07:05:26;;;;;;;8.73;1.07;;;;;;;16.21;51.28;99555.44;1704403;82;21046;-68
2022/05/16 07:07:55;;;;;;;8.15;0.95;;;;;;;16.36;51.95;99555.83;1757114;80;21019;-79
2022/05/16 07:10:23;;;;;;;2.65;1.00;;;;;;;16.47;51.01;99554.11;1769840;80;22221;-78
2022/05/16 07:12:53;;;;;;;4.22;1.42;;;;;;;16.48;50.52;99553.53;1712722;82;20960;-74
2022/05/16 07:15:20;;;;;;;5.35;1.00;;;;;;;16.53;51.05;99549.09;1693877;82;21020;-74
2022/05/16 07:17:48;;;;;;;2.70;1.00;;;;;;;16.61;50.21;99550.87;1688815;83;21042;-77
2022/05/16 07:20:18;;;;;;;2.35;0.90;;;;;;;16.62;49.51;99555.26;1686877;84;21082;-74
2022/05/16 07:22:50;;;;;;;5.22;1.20;;;;;;;16.63;49.79;99544.95;1698946;82;21878;-78
2022/05/16 07:25:22;;;;;;;8.35;1.45;;;;;;;16.66;49.29;99551.17;1724046;82;21051;-79
2022/05/16 07:27:56;;;;;;;6.00;1.32;;;;;;;16.66;49.17;99553.96;1715978;82;20983;-77
2022/05/16 07:30:30;;;;;;;5.30;1.00;;;;;;;16.70;49.38;99552.66;1712617;83;20957;-77
2022/05/16 07:33:02;;;;;;;7.33;1.20;;;;;;;16.77;49.28;99548.63;1715220;82;21571;-79
2022/05/16 07:35:38;;;;;;;4.58;1.17;;;;;;;16.79;48.32;99552.68;1770723;80;21410;-71
2022/05/16 07:38:05;;;;;;;3.85;1.00;;;;;;;16.65;48.40;99553.14;1753854;80;21383;-76
2022/05/16 07:40:37;;;;;;;2.98;0.90;;;;;;;16.65;49.11;99556.53;1730881;80;20976;-75
2022/05/16 07:43:07;;;;;;;3.80;1.50;;;;;;;16.66;48.96;99551.99;1745514;80;21421;-81
2022/05/16 07:45:38;;;;;;;;;;;;;;;16.73;48.96;99552.75;1703837;83;21017;-73
2022/05/16 07:48:12;;;;;;;3.67;0.93;;;;;;;16.83;47.30;99543.03;1695944;83;21844;-74
2022/05/16 07:50:40;;;;;;;5.45;1.30;;;;;;;16.91;47.49;99550.37;1717103;82;21521;-79
2022/05/16 07:53:15;;;;;;;4.40;0.70;;;;;;;17.09;47.70;99543.59;1714278;83;21786;-80
2022/05/16 07:55:46;;;;;;;4.65;1.35;;;;;;;17.20;46.56;99547.44;1703896;82;21115;-69
2022/05/16 07:58:20;;;;;;;5.50;0.95;;;;;;;17.10;45.85;99546.61;1719585;81;21106;-76
2022/05/16 08:00:50;;;;;;;;;;;;;;;16.96;45.77;99552.63;1723686;81;20921;-76
2022/05/16 08:03:22;;;;;;;6.78;1.25;;;;;;;16.85;45.83;99548.23;1707810;82;20233;-66
2022/05/16 08:05:53;;;;;;;2.23;1.20;;;;;;;16.71;45.95;99548.12;1703036;82;21141;-68
2022/05/16 08:11:04;;;;;;;3.22;1.20;;;;;;;16.49;46.28;99546.22;1755447;81;21386;-72
2022/05/16 08:13:33;;;;;;;9.28;2.30;;;;;;;16.61;46.54;99541.14;1747626;81;21157;-73
2022/05/16 08:16:02;;;;;;;3.22;0.95;;;;;;;16.81;45.52;99541.77;1750689;81;21498;-80
2022/05/16 08:18:30;;;;;;;2.87;1.05;;;;;;;16.89;44.36;99546.31;1758771;81;21033;-68
2022/05/16 08:20:59;;;;;;;5.28;1.40;;;;;;;16.86;43.08;99550.64;1764035;80;21461;-80
2022/05/16 08:23:29;;;;;;;2.75;1.00;;;;;;;16.78;43.42;99548.30;1767153;80;21038;-78
2022/05/16 08:26:01;;;;;;;5.85;0.93;;;;;;;16.77;44.24;99549.45;1741435;80;21027;-76
2022/05/16 08:28:36;;;;;;;5.37;1.05;;;;;;;16.82;43.51;99550.34;1684831;83;21211;-65
2022/05/16 08:31:09;;;;;;;1.92;0.70;;;;;;;16.80;42.67;99549.33;1682324;83;20974;-71
2022/05/16 08:33:40;;;;;;;4.35;0.82;;;;;;;16.78;43.31;99544.13;1709010;83;21022;-72
2022/05/16 08:41:53;;;;;;;2.25;1.17;;;;;;;17.17;42.33;99549.56;1659141;85;21057;-77
2022/05/16 08:44:46;;;;;;;3.60;1.35;;;;;;;17.11;42.71;99555.20;1668530;83;21072;-76
2022/05/16 08:47:27;;;;;;;2.83;0.93;;;;;;;17.25;43.15;99558.28;1693281;83;21111;-84
2022/05/16 08:50:03;;;;;;;1.95;0.60;;;;;;;17.52;41.23;99554.26;1691514;83;21102;-66
2022/05/16 08:52:39;;;;;;;2.40;0.80;;;;;;;17.77;40.34;99551.76;1671813;83;21159;-79
2022/05/16 08:55:30;;;;;;;4.58;1.00;;;;;;;17.93;40.60;99546.68;1696581;83;21079;-76
2022/05/16 08:58:26;;;;;;;9.80;1.40;;;;;;;18.03;41.20;99549.44;1696096;84;21044;-82
2022/05/16 09:01:07;;;;;;;5.12;1.12;;;;;;;18.08;40.95;99551.31;1687654;84;20964;-69
2022/05/16 09:04:05;;;;;;;6.42;1.27;;;;;;;18.19;40.39;99557.13;1663216;84;20978;-66
2022/05/16 09:06:55;;;;;;;2.62;1.05;;;;;;;18.12;39.40;99551.37;1694775;84;21230;-74
2022/05/16 09:09:28;;;;;;;4.95;1.35;;;;;;;17.95;39.27;99567.99;1703017;82;21105;-67
2022/05/16 09:12:15;;;;;;;2.95;1.00;;;;;;;17.67;38.82;99556.53;1766783;80;21095;-73
2022/05/16 09:15:14;;;;;;;4.80;0.98;;;;;;;17.41;38.28;99567.16;1743104;81;21041;-74
2022/05/16 09:18:37;;;;;;;3.02;0.95;;;;;;;17.37;39.01;99567.66;1746340;80;21142;-78
2022/05/16 09:21:26;;;;;;;4.97;0.70;;;;;;;17.39;37.40;99556.39;1755119;81;21098;-79
2022/05/16 09:24:10;;;;;;;5.08;0.75;;;;;;;17.27;37.54;99557.34;1756646;80;20958;-77
2022/05/16 09:27:12;;;;;;;1.40;0.68;;;;;;;17.27;39.21;99565.69;1742687;80;21053;-82
2022/05/16 09:29:45;;;;;;;4.70;1.17;;;;;;;17.47;40.53;99560.13;1696474;82;21039;-77
2022/05/16 09:32:28;;;;;;;6.45;1.15;;;;;;;17.70;39.25;99560.78;1719066;79;21584;-81
2022/05/16 09:35:13;;;;;;;2.75;1.25;;;;;;;17.86;40.12;99551.53;1748658;80;21111;-76
2022/05/16 09:37:49;;;;;;;3.37;0.75;;;;;;;18.11;40.25;99552.57;1733835;80;21057;-82
2022/05/16 09:40:22;;;;;;;3.50;0.70;;;;;;;18.29;39.26;99547.94;1745435;81;21487;-78
2022/05/16 09:42:58;;;;;;;2.98;1.00;;;;;;;18.26;38.30;99543.89;1747243;81;20947;-79
2022/05/16 09:45:29;;;;;;;3.35;1.10;;;;;;;18.18;38.21;99546.34;1755557;80;21008;-80
2022/05/16 09:47:58;;;;;;;4.62;1.10;;;;;;;18.11;38.91;99544.20;1735795;80;21911;-82
2022/05/16 09:50:28;;;;;;;2.40;0.88;;;;;;;18.24;39.34;99544.84;1750332;80;21010;-76
2022/05/16 09:53:09;;;;;;;2.20;0.98;;;;;;;18.46;39.01;99541.83;1755233;80;21028;-87
2022/05/16 09:55:57;;;;;;;3.05;0.85;;;;;;;18.62;38.99;99540.88;1762023;80;21010;-80
2022/05/16 09:58:30;;;;;;;3.50;0.90;;;;;;;18.61;35.97;99547.05;1766694;80;20992;-77
2022/05/16 10:01:00;;;;;;;2.10;0.68;;;;;;;18.36;36.34;99545.24;1762830;81;21116;-82
2022/05/16 10:03:46;;;;;;;3.98;1.00;;;;;;;18.25;37.17;99536.72;1767481;81;21046;-81
2022/05/16 10:06:31;;;;;;;7.53;0.95;;;;;;;18.22;37.21;99542.43;1749849;80;21022;-80
2022/05/16 10:09:18;;;;;;;1.27;0.75;;;;;;;18.13;37.71;99537.70;1756883;81;21041;-81
2022/05/16 10:11:51;;;;;;;4.80;0.80;;;;;;;18.00;37.43;99542.03;1764100;79;20984;-81
2022/05/16 10:14:23;;;;;;;3.30;0.57;;;;;;;17.91;37.79;99542.05;1763266;80;20908;-82
2022/05/16 10:16:52;;;;;;;4.12;1.15;;;;;;;17.85;38.02;99540.15;1743280;81;21046;-83
2022/05/16 10:19:24;;;;;;;2.02;0.70;;;;;;;17.88;37.33;99531.05;1762349;80;21146;-81
2022/05/16 10:22:05;;;;;;;1.07;0.53;;;;;;;17.89;37.66;99535.45;1754833;80;20976;-80
2022/05/16 10:24:52;;;;;;;2.00;0.70;;;;;;;17.93;37.01;99529.34;1743396;79;21030;-80
2022/05/16 10:27:24;;;;;;;2.62;0.80;;;;;;;17.88;37.28;99531.86;1742558;80;21792;-83
2022/05/16 10:29:52;;;;;;;1.30;0.80;;;;;;;17.81;38.14;99528.93;1750856;80;20912;-83
2022/05/16 10:35:37;;;;;;;1.10;0.50;;;;;;;17.68;39.14;99528.87;1748562;80;20960;-77
2022/05/16 10:39:02;;;;;;;2.02;0.60;;;;;;;17.61;38.20;99535.13;1750880;80;21042;-80
2022/05/16 10:41:57;;;;;;;2.52;0.70;;;;;;;17.54;39.18;99539.17;1720983;81;21016;-76
2022/05/16 10:45:04;;;;;;;3.27;0.50;;;;;;;17.80;39.21;99527.91;1747349;80;21055;-79
2022/05/16 10:47:37;;;;;;;6.08;0.70;;;;;;;18.12;38.22;99519.32;1749761;81;21011;-76
2022/05/16 10:50:15;;;;;;;12.00;0.82;;;;;;;18.47;38.03;99520.33;1742819;81;20991;-75
2022/05/16 10:52:59;;;;;;;3.20;0.93;;;;;;;18.47;38.03;99520.33;1762681;80;20951;-81
2022/05/16 10:55:56;;;;;;;2.22;1.22;;;;;;;18.46;37.13;99519.52;1745204;81;21571;-80
2022/05/16 10:58:57;;;;;;;2.42;0.72;;;;;;;18.41;36.81;99524.02;1751841;80;21364;-80
2022/05/16 11:02:08;;;;;;;10.68;1.12;;;;;;;18.52;37.89;99514.44;1743730;80;20930;-78
2022/05/16 11:05:27;;;;;;;2.27;0.78;;;;;;;18.73;37.47;99512.55;1727152;82;20971;-70
2022/05/16 11:08:46;;;;;;;2.00;0.90;;;;;;;18.94;36.36;99508.45;1750559;81;21800;-71
2022/05/16 11:12:16;;;;;;;6.45;0.82;;;;;;;19.11;36.77;99508.31;1752151;80;22130;-79
2022/05/16 11:15:27;;;;;;;2.30;1.20;;;;;;;19.18;35.62;99500.81;1623810;86;21031;-77
2022/05/16 11:18:11;;;;;;;1.87;0.90;;;;;;;19.04;35.48;99496.43;1666769;84;21127;-80
2022/05/16 11:20:56;;;;;;;4.28;1.15;;;;;;;18.89;35.70;99500.41;1759448;80;21076;-71
2022/05/16 11:23:47;;;;;;;1.90;1.10;;;;;;;18.71;35.44;99498.16;1739412;80;20971;-79
2022/05/16 11:26:31;;;;;;;6.72;1.20;;;;;;;18.69;36.57;99494.15;1713405;80;21287;-71
2022/05/16 11:29:20;;;;;;;4.70;1.35;;;;;;;18.73;36.25;99500.59;1744774;80;21217;-69
2022/05/16 11:32:30;;;;;;;4.47;1.93;;;;;;;18.63;35.89;99497.84;1757432;80;21058;-72
2022/05/16 11:35:45;;;;;;;5.08;1.52;;;;;;;18.49;35.73;99500.63;1696472;82;21669;-77
2022/05/16 11:38:37;;;;;;;;;;;;;;;18.34;35.85;99507.97;1710933;82;21058;-74
2022/05/16 11:41:21;;;;;;;3.98;0.90;;;;;;;18.15;35.93;99504.66;1749138;80;20242;-82
2022/05/16 11:43:51;;;;;;;2.55;0.80;;;;;;;18.07;36.52;99504.30;1749218;81;21740;-85
2022/05/16 11:46:43;;;;;;;1.55;0.80;;;;;;;18.10;36.97;99498.00;1760669;80;21034;-75
2022/05/16 11:49:18;;;;;;;4.28;1.02;;;;;;;18.17;36.96;99491.77;1652579;84;21049;-69
2022/05/16 11:51:58;;;;;;;3.12;1.35;;;;;;;18.34;37.55;99488.45;1702366;82;20951;-84
2022/05/16 11:54:30;;;;;;;1.27;0.78;;;;;;;18.58;36.84;99484.22;1725772;82;21135;-77
2022/05/16 12:02:48;;;;;;;4.53;1.10;;;;;;;18.90;35.82;99483.86;1715549;82;21534;-79
2022/05/16 12:05:27;;;;;;;5.47;0.90;;;;;;;18.76;35.23;99483.67;1732188;82;21033;-84
2022/05/16 12:08:16;;;;;;;2.15;1.00;;;;;;;18.54;34.81;99476.39;1733178;82;21054;-81
2022/05/16 12:11:09;;;;;;;3.85;0.90;;;;;;;18.34;35.05;99480.66;1697730;82;21554;-89
2022/05/16 12:13:58;;;;;;;1.25;0.65;;;;;;;18.25;36.45;99473.98;1710479;82;21507;-83
2022/05/16 12:16:42;;;;;;;2.12;0.78;;;;;;;18.25;36.44;99480.34;1705050;82;21164;-81
2022/05/16 12:19:29;;;;;;;2.05;0.80;;;;;;;18.35;36.28;99479.50;1717648;82;20928;-82
2022/05/16 12:22:10;;;;;;;1.80;1.20;;;;;;;18.55;36.32;99475.20;1712808;82;20970;-78
2022/05/16 12:25:06;;;;;;;4.78;0.70;;;;;;;18.74;35.41;99478.48;1717830;82;21020;-82
2022/05/16 12:27:43;;;;;;;4.50;1.25;;;;;;;18.82;34.47;99467.63;1709848;82;20927;-82
2022/05/16 12:30:22;;;;;;;2.77;0.78;;;;;;;18.83;35.60;99471.23;1708598;82;20970;-81
2022/05/16 12:32:54;;;;;;;7.12;0.80;;;;;;;18.90;35.39;99463.54;1734963;81;21156;-86
2022/05/16 12:35:35;;;;;;;8.80;1.00;;;;;;;19.05;35.83;99449.17;1767640;81;21446;-82
2022/05/16 12:38:05;;;;;;;8.55;0.88;;;;;;;19.33;35.45;99457.69;1733801;81;21030;-82
2022/05/16 12:41:05;;;;;;;1.00;0.72;;;;;;;19.59;34.19;99451.78;1738592;80;20947;-75
2022/05/16 12:44:08;;;;;;;2.42;0.88;;;;;;;19.75;34.30;99446.55;1734368;81;20951;-81
2022/05/16 12:47:14;;;;;;;3.85;1.00;;;;;;;19.96;34.56;99440.33;1726785;81;21078;-77
2022/05/16 12:49:53;;;;;;;3.25;1.47;;;;;;;20.08;33.05;99451.84;1731123;81;21167;-81
2022/05/16 12:52:34;;;;;;;3.10;0.80;;;;;;;19.90;33.17;99444.69;1725834;81;20963;-81
2022/05/16 12:55:37;;;;;;;4.53;1.07;;;;;;;19.81;32.67;99440.80;1744010;79;21499;-71
2022/05/16 12:58:46;;;;;;;9.80;1.00;;;;;;;19.73;33.43;99446.13;1740357;82;21418;-79
2022/05/16 13:01:45;;;;;;;2.45;0.82;;;;;;;19.73;33.24;99449.73;1719685;81;20995;-70